Time;durP1;ratioP1;P1;durP2;ratioP2;P2;SDS_P1;SDS_P2;PMS_P1;PMS_P2;Temp;Humidity;BMP_temperature;BMP_pressure;BME280_temperature;BME280_humidity;BME280_pressure;Samples;Min_cycle;Max_cycle;Signal;HPM_P1;HPM_P2
2024/04/05 00:00:16;;;;;;;11.93;2.08;;;;;;;7.70;60.48;100787.25;5004950;28;20467;-68
2024/04/05 00:02:44;;;;;;;15.18;2.40;;;;;;;7.84;60.19;100788.59;5008280;28;20067;-68
2024/04/05 00:05:10;;;;;;;12.60;2.10;;;;;;;7.82;60.32;100790.38;5004056;28;20033;-72
2024/04/05 00:07:39;;;;;;;8.50;1.80;;;;;;;8.01;59.83;100791.53;5011831;28;20048;-71
2024/04/05 00:10:07;;;;;;;13.05;2.72;;;;;;;7.89;60.38;100790.16;5014622;28;20087;-69
2024/04/05 00:12:32;;;;;;;6.47;1.67;;;;;;;7.98;60.18;100789.03;5008455;28;20699;-71
2024/04/05 00:14:58;;;;;;;5.25;1.95;;;;;;;7.93;60.60;100798.72;5013918;28;20078;-70
2024/04/05 00:17:23;;;;;;;14.70;2.80;;;;;;;7.75;61.39;100787.09;5007228;28;20364;-69
2024/04/05 00:19:48;;;;;;;12.55;2.22;;;;;;;7.86;61.36;100784.19;5018092;28;20442;-69
2024/04/05 00:22:14;;;;;;;11.32;2.13;;;;;;;7.74;61.71;100782.81;5004467;28;20136;-69
2024/04/05 00:24:40;;;;;;;13.75;2.72;;;;;;;7.85;61.81;100785.09;5015344;28;20060;-68
2024/04/05 00:27:05;;;;;;;13.48;1.95;;;;;;;7.67;62.58;100782.13;5011394;28;20199;-70
2024/04/05 00:29:31;;;;;;;16.30;2.47;;;;;;;7.76;62.70;100778.41;5011470;28;20421;-69
2024/04/05 00:31:56;;;;;;;15.13;2.70;;;;;;;7.65;62.84;100773.53;5013974;28;20647;-69
2024/04/05 00:34:21;;;;;;;14.45;3.35;;;;;;;7.50;63.77;100760.94;5007066;28;20507;-70
2024/04/05 00:36:47;;;;;;;17.50;2.72;;;;;;;7.57;63.38;100764.25;5016077;28;20029;-70
2024/04/05 00:39:12;;;;;;;21.23;3.15;;;;;;;7.12;65.11;100762.88;5007082;28;20035;-70
2024/04/05 00:41:38;;;;;;;16.98;2.80;;;;;;;7.73;63.28;100765.47;5035104;28;20434;-70
2024/04/05 00:44:04;;;;;;;24.48;3.28;;;;;;;8.04;62.14;100757.59;5027168;28;20072;-70
2024/04/05 00:46:31;;;;;;;15.38;2.80;;;;;;;8.02;62.26;100771.56;5009751;28;20037;-70
2024/04/05 00:48:57;;;;;;;26.55;3.38;;;;;;;8.09;61.55;100763.53;5010194;28;20080;-70
2024/04/05 00:51:23;;;;;;;15.55;2.75;;;;;;;8.23;61.54;100764.84;5010752;28;20123;-70
2024/04/05 00:53:48;;;;;;;25.50;3.15;;;;;;;7.98;62.68;100769.94;5011954;28;20411;-70
2024/04/05 00:56:14;;;;;;;20.58;2.75;;;;;;;8.01;62.38;100760.31;5005791;28;20029;-70
2024/04/05 00:58:40;;;;;;;26.38;4.63;;;;;;;7.89;62.77;100771.06;5028545;28;20348;-70
2024/04/05 01:01:05;;;;;;;19.23;2.53;;;;;;;8.25;61.50;100768.22;5013445;28;20119;-70
2024/04/05 01:03:31;;;;;;;31.73;2.80;;;;;;;8.09;61.85;100773.06;5007722;28;20139;-70
2024/04/05 01:05:57;;;;;;;18.75;2.97;;;;;;;8.20;61.76;100767.53;5012830;28;20116;-71
2024/04/05 01:08:22;;;;;;;26.95;3.80;;;;;;;7.99;62.67;100766.47;5007160;28;20136;-70
2024/04/05 01:10:47;;;;;;;18.55;3.00;;;;;;;7.95;62.39;100760.47;5014662;28;20028;-70
2024/04/05 01:13:13;;;;;;;33.65;3.42;;;;;;;7.45;64.30;100765.41;5009726;28;20056;-70
2024/04/05 01:15:40;;;;;;;14.50;3.05;;;;;;;7.64;63.87;100763.16;5008389;28;20033;-70
2024/04/05 01:18:07;;;;;;;23.13;4.15;;;;;;;7.21;64.56;100766.97;5011086;28;20510;-71
2024/04/05 01:20:34;;;;;;;24.77;4.13;;;;;;;7.17;64.79;100770.53;5000438;28;20124;-70
2024/04/05 01:23:07;;;;;;;39.85;3.08;;;;;;;7.47;64.39;100758.44;5012840;28;20074;-70
2024/04/05 01:25:33;;;;;;;34.53;5.15;;;;;;;7.25;64.60;100759.03;4999494;28;20071;-72
2024/04/05 01:28:00;;;;;;;22.25;3.47;;;;;;;7.47;64.11;100771.44;5012564;28;20045;-72
2024/04/05 01:30:26;;;;;;;22.83;3.00;;;;;;;7.79;63.16;100769.66;5020427;28;20068;-72
2024/04/05 01:32:55;;;;;;;20.67;3.45;;;;;;;7.51;64.10;100762.63;5012548;28;20520;-72
2024/04/05 01:35:21;;;;;;;25.05;3.47;;;;;;;7.41;64.69;100766.41;4996586;28;20029;-72
2024/04/05 01:37:47;;;;;;;27.98;2.97;;;;;;;7.88;62.67;100767.63;5013025;28;20047;-70
2024/04/05 01:40:12;;;;;;;21.50;3.22;;;;;;;7.71;63.58;100762.94;5013500;28;20033;-70
2024/04/05 01:42:38;;;;;;;30.40;3.10;;;;;;;7.92;63.04;100765.78;5006299;28;20146;-68
2024/04/05 01:45:04;;;;;;;22.63;3.50;;;;;;;8.00;63.00;100766.38;5013393;28;20056;-69
2024/04/05 01:47:30;;;;;;;29.48;4.32;;;;;;;7.59;64.23;100765.06;5005257;28;20204;-68
2024/04/05 01:49:55;;;;;;;30.92;5.07;;;;;;;7.48;64.83;100763.56;5015617;28;20388;-68
2024/04/05 01:52:21;;;;;;;34.15;5.75;;;;;;;7.32;65.24;100760.56;5003270;28;20052;-68
2024/04/05 01:54:48;;;;;;;43.92;5.03;;;;;;;7.91;63.37;100764.94;5014574;28;20029;-67
2024/04/05 01:57:13;;;;;;;17.63;3.25;;;;;;;7.71;63.63;100769.88;5009562;28;20060;-67
2024/04/05 01:59:39;;;;;;;37.00;4.90;;;;;;;7.99;62.88;100767.31;5010219;28;20032;-66
2024/04/05 02:02:04;;;;;;;27.83;2.78;;;;;;;8.18;62.21;100761.50;5012214;28;20183;-67
2024/04/05 02:04:30;;;;;;;28.13;3.88;;;;;;;8.10;62.46;100770.41;5005089;28;20021;-67
2024/04/05 02:06:55;;;;;;;26.08;3.90;;;;;;;7.87;62.91;100765.94;5012588;28;20482;-67
2024/04/05 02:09:21;;;;;;;22.27;3.13;;;;;;;7.88;62.60;100758.97;4998926;28;20017;-67
2024/04/05 02:11:46;;;;;;;31.48;4.25;;;;;;;7.41;63.65;100764.66;5015385;28;20048;-67
2024/04/05 02:14:12;;;;;;;27.77;4.05;;;;;;;7.83;62.73;100766.06;5021981;28;20048;-68
2024/04/05 02:16:37;;;;;;;33.78;4.18;;;;;;;7.66;62.89;100769.16;5008624;28;20669;-67
2024/04/05 02:19:02;;;;;;;23.90;3.22;;;;;;;7.89;62.53;100781.47;5027447;28;20040;-68
2024/04/05 02:21:28;;;;;;;19.58;3.20;;;;;;;7.76;62.90;100772.34;5006736;28;20867;-68
2024/04/05 02:23:53;;;;;;;25.38;2.80;;;;;;;7.88;61.98;100777.19;5009139;28;20041;-67
2024/04/05 02:26:19;;;;;;;20.92;2.88;;;;;;;7.80;62.07;100782.63;5009166;28;20106;-68
2024/04/05 02:28:45;;;;;;;29.27;3.60;;;;;;;7.84;61.71;100783.38;5024502;28;20037;-67
2024/04/05 02:31:10;;;;;;;16.98;3.20;;;;;;;8.00;61.41;100779.41;5009520;28;20079;-68
2024/04/05 02:33:36;;;;;;;19.55;2.60;;;;;;;7.74;62.08;100777.59;5007257;28;20797;-68
2024/04/05 02:36:03;;;;;;;28.60;3.08;;;;;;;7.78;61.51;100778.34;5025063;28;20438;-69
2024/04/05 02:38:28;;;;;;;35.60;4.57;;;;;;;7.46;62.68;100782.72;5004055;28;20581;-72
2024/04/05 02:40:55;;;;;;;23.33;3.67;;;;;;;8.01;60.94;100786.34;5012608;28;20070;-70
2024/04/05 02:43:21;;;;;;;20.17;2.38;;;;;;;7.98;60.75;100789.03;5022277;28;20156;-70
2024/04/05 02:45:47;;;;;;;18.83;2.80;;;;;;;8.19;59.88;100794.47;5009621;28;20607;-70
2024/04/05 02:48:13;;;;;;;22.73;3.42;;;;;;;7.57;61.44;100792.84;5008414;28;20139;-71
2024/04/05 02:50:39;;;;;;;25.13;3.58;;;;;;;7.70;60.85;100791.59;5006354;28;20037;-71
2024/04/05 02:53:04;;;;;;;29.90;2.90;;;;;;;7.66;61.06;100795.19;5013215;28;20522;-70
2024/04/05 02:55:31;;;;;;;20.75;2.60;;;;;;;7.70;60.54;100792.44;5000264;28;20124;-69
2024/04/05 02:57:56;;;;;;;16.25;2.10;;;;;;;8.01;59.46;100791.53;5010722;28;20749;-70
2024/04/05 03:00:22;;;;;;;23.35;3.13;;;;;;;7.85;59.84;100792.91;5004039;28;20086;-69
2024/04/05 03:02:48;;;;;;;26.80;2.53;;;;;;;7.95;59.74;100791.72;5012624;28;20131;-69
2024/04/05 03:05:14;;;;;;;14.73;2.30;;;;;;;8.00;59.28;100792.41;5018934;28;20531;-70
2024/04/05 03:07:40;;;;;;;28.42;3.72;;;;;;;7.81;59.72;100793.91;5018604;28;20094;-69
2024/04/05 03:10:06;;;;;;;26.85;3.05;;;;;;;7.62;59.94;100794.41;5023292;28;20487;-69
2024/04/05 03:12:32;;;;;;;19.67;3.53;;;;;;;7.53;59.92;100779.03;5002849;28;20291;-68
2024/04/05 03:14:58;;;;;;;28.50;2.25;;;;;;;8.08;58.69;100789.59;5011955;28;20036;-69
2024/04/05 03:17:23;;;;;;;21.88;2.58;;;;;;;7.90;59.27;100773.63;5000757;28;20040;-70
2024/04/05 03:19:49;;;;;;;20.38;2.65;;;;;;;7.99;58.93;100780.31;5013902;28;20573;-69
2024/04/05 03:22:14;;;;;;;18.85;2.65;;;;;;;7.63;59.39;100780.53;5012998;28;20041;-70
2024/04/05 03:24:40;;;;;;;18.63;1.95;;;;;;;7.51;59.66;100789.50;5004656;28;20304;-70
2024/04/05 03:27:06;;;;;;;18.92;2.30;;;;;;;7.49;60.23;100796.50;5010833;28;20080;-70
2024/04/05 03:29:32;;;;;;;19.92;2.03;;;;;;;7.28;60.48;100795.31;5003639;28;20140;-71
2024/04/05 03:31:58;;;;;;;15.73;3.90;;;;;;;7.45;60.48;100792.28;5011803;28;20060;-70
2024/04/05 03:34:24;;;;;;;20.70;3.92;;;;;;;7.41;60.26;100800.22;5006520;28;20228;-71
2024/04/05 03:36:49;;;;;;;24.38;2.80;;;;;;;7.86;59.23;100802.41;4993828;28;20705;-70
2024/04/05 03:39:15;;;;;;;35.58;2.70;;;;;;;7.67;59.48;100791.69;5009439;28;20044;-70
2024/04/05 03:41:40;;;;;;;15.05;2.72;;;;;;;7.38;60.30;100795.94;5003831;28;21118;-70
2024/04/05 03:44:06;;;;;;;21.17;2.25;;;;;;;7.37;60.45;100793.38;5007129;28;20072;-70
2024/04/05 03:46:35;;;;;;;15.65;2.95;;;;;;;7.19;60.79;100790.38;5004764;28;20029;-70
2024/04/05 03:49:02;;;;;;;27.02;3.03;;;;;;;7.46;60.15;100785.31;5010664;28;20072;-70
2024/04/05 03:51:28;;;;;;;13.55;2.50;;;;;;;7.53;59.90;100787.72;5003759;28;20036;-70
2024/04/05 03:53:54;;;;;;;20.95;2.03;;;;;;;7.48;60.10;100786.13;5024406;28;20135;-70
2024/04/05 03:56:19;;;;;;;16.92;1.73;;;;;;;7.59;59.62;100789.31;5012069;28;20029;-70
2024/04/05 03:58:46;;;;;;;25.02;3.00;;;;;;;7.37;60.02;100794.22;5002265;28;20434;-70
2024/04/05 04:01:12;;;;;;;11.30;2.28;;;;;;;7.18;60.79;100786.09;5010550;28;20686;-70
2024/04/05 04:03:37;;;;;;;19.08;2.25;;;;;;;7.40;60.39;100778.56;5001968;28;20041;-70
2024/04/05 04:06:04;;;;;;;20.60;3.40;;;;;;;7.21;60.97;100788.59;5009734;28;20041;-70
2024/04/05 04:08:30;;;;;;;13.90;1.67;;;;;;;7.59;59.79;100789.31;5004023;28;20171;-70
2024/04/05 04:10:56;;;;;;;23.20;2.03;;;;;;;7.65;59.79;100796.94;5011678;28;20288;-71
2024/04/05 04:13:22;;;;;;;19.90;2.42;;;;;;;7.09;61.13;100794.16;5010739;28;20029;-70
2024/04/05 04:15:48;;;;;;;24.65;1.77;;;;;;;7.30;60.55;100798.75;5003437;28;20091;-70
2024/04/05 04:18:13;;;;;;;21.05;3.47;;;;;;;7.36;60.59;100791.69;5012513;28;20797;-70
2024/04/05 04:20:39;;;;;;;12.30;2.50;;;;;;;7.12;61.39;100800.09;5002449;28;20063;-70
2024/04/05 04:23:05;;;;;;;14.68;2.08;;;;;;;7.25;60.97;100805.81;5012727;28;20072;-70
2024/04/05 04:25:33;;;;;;;14.02;2.30;;;;;;;7.44;60.49;100805.31;4999082;28;20127;-70
2024/04/05 04:27:58;;;;;;;24.77;3.17;;;;;;;7.19;61.31;100805.97;5010202;28;20195;-73
2024/04/05 04:30:24;;;;;;;11.20;2.63;;;;;;;7.36;60.93;100802.09;5010716;28;20040;-71
2024/04/05 04:32:49;;;;;;;19.70;2.47;;;;;;;7.52;60.40;100803.34;5007395;28;20037;-72
2024/04/05 04:35:15;;;;;;;21.58;3.33;;;;;;;7.04;61.80;100802.06;5011859;28;20033;-73
2024/04/05 04:37:40;;;;;;;25.95;1.90;;;;;;;7.41;61.37;100805.41;5000470;28;20033;-72
2024/04/05 04:40:06;;;;;;;14.68;2.30;;;;;;;7.43;61.22;100803.63;5013847;28;20079;-73
2024/04/05 04:42:32;;;;;;;17.50;3.05;;;;;;;7.50;60.63;100806.00;4998950;28;20438;-73
2024/04/05 04:44:57;;;;;;;27.60;2.05;;;;;;;7.42;61.39;100814.91;5010988;28;20021;-72
2024/04/05 04:47:25;;;;;;;21.92;2.15;;;;;;;7.55;60.52;100802.44;5008502;28;20883;-73
2024/04/05 04:49:51;;;;;;;19.45;1.77;;;;;;;7.63;60.63;100806.53;5004880;28;20124;-72
2024/04/05 04:52:17;;;;;;;17.50;2.20;;;;;;;7.71;60.32;100798.50;5008455;28;20037;-70
2024/04/05 04:54:43;;;;;;;16.60;2.58;;;;;;;7.75;60.15;100805.31;5007832;28;20028;-71
2024/04/05 04:57:08;;;;;;;16.05;1.73;;;;;;;7.65;60.30;100809.09;5012404;28;20135;-70
2024/04/05 04:59:34;;;;;;;21.10;1.77;;;;;;;7.22;61.74;100813.72;5006814;28;20727;-70
2024/04/05 05:02:00;;;;;;;19.80;2.00;;;;;;;7.60;61.00;100821.38;5011368;28;20040;-70
2024/04/05 05:04:25;;;;;;;19.83;2.70;;;;;;;7.14;62.25;100827.81;5015514;28;20040;-70
2024/04/05 05:06:51;;;;;;;15.52;2.00;;;;;;;7.70;60.46;100818.47;5033823;28;20441;-70
2024/04/05 05:09:17;;;;;;;23.38;3.80;;;;;;;7.51;61.03;100810.31;5013529;28;20461;-70
2024/04/05 05:11:43;;;;;;;22.13;2.58;;;;;;;7.77;60.17;100808.72;5006704;28;20099;-72
2024/04/05 05:14:09;;;;;;;17.10;1.95;;;;;;;7.34;61.76;100809.91;5011541;28;20049;-70
2024/04/05 05:16:36;;;;;;;18.83;2.08;;;;;;;7.50;61.45;100810.34;5007096;28;20119;-70
2024/04/05 05:19:03;;;;;;;16.90;1.85;;;;;;;7.66;60.69;100816.00;5014106;28;20037;-70
2024/04/05 05:21:31;;;;;;;18.20;3.03;;;;;;;7.91;60.24;100816.13;5016515;28;20525;-70
2024/04/05 05:23:58;;;;;;;15.98;2.08;;;;;;;7.40;62.08;100814.09;5011927;28;20124;-74
2024/04/05 05:26:23;;;;;;;19.15;3.53;;;;;;;7.28;62.48;100816.13;5016230;28;20037;-73
2024/04/05 05:28:49;;;;;;;19.27;2.55;;;;;;;7.64;61.62;100818.63;5005391;28;20084;-75
2024/04/05 05:31:14;;;;;;;9.07;2.53;;;;;;;7.71;61.08;100830.59;5043079;28;20036;-76
2024/04/05 05:33:40;;;;;;;11.00;2.10;;;;;;;7.80;61.36;100820.78;5010899;28;20284;-69
2024/04/05 05:36:05;;;;;;;17.50;3.15;;;;;;;8.09;60.49;100826.00;5015408;28;20028;-72
2024/04/05 05:38:31;;;;;;;20.00;2.75;;;;;;;8.02;60.88;100828.81;5028095;28;20167;-70
2024/04/05 05:40:56;;;;;;;22.05;3.17;;;;;;;8.06;60.82;100828.69;4987427;28;20033;-70
2024/04/05 05:43:22;;;;;;;21.02;3.17;;;;;;;8.12;60.82;100833.72;5012948;28;20041;-73
2024/04/05 05:45:48;;;;;;;16.15;2.25;;;;;;;7.85;61.74;100822.38;5005779;28;20037;-69
2024/04/05 05:48:13;;;;;;;20.67;2.60;;;;;;;8.07;61.40;100833.00;5008521;28;20274;-73
2024/04/05 05:50:38;;;;;;;13.88;2.15;;;;;;;8.19;60.91;100826.56;5006605;28;20069;-75
2024/04/05 05:53:04;;;;;;;26.75;2.90;;;;;;;7.62;63.14;100825.63;5014562;28;20542;-77
2024/04/05 05:55:29;;;;;;;22.95;3.03;;;;;;;7.69;63.46;100829.78;5011647;28;20029;-70
2024/04/05 05:57:57;;;;;;;21.08;3.10;;;;;;;7.74;63.49;100824.44;4989807;28;20657;-69
2024/04/05 06:00:22;;;;;;;20.95;2.85;;;;;;;7.99;63.02;100829.78;4997583;28;20025;-73
2024/04/05 06:02:48;;;;;;;20.27;3.13;;;;;;;7.70;63.28;100815.84;5005166;28;21035;-73
2024/04/05 06:05:13;;;;;;;11.05;2.95;;;;;;;7.22;65.63;100820.63;5012723;28;20029;-73
2024/04/05 06:07:39;;;;;;;19.83;2.78;;;;;;;8.07;63.25;100817.38;4998714;28;20497;-71
2024/04/05 06:10:05;;;;;;;26.55;3.88;;;;;;;7.51;64.50;100818.13;5015737;28;20041;-73
2024/04/05 06:12:36;;;;;;;17.42;2.72;;;;;;;7.65;64.25;100825.56;5008905;28;20446;-73
2024/04/05 06:15:04;;;;;;;22.15;2.78;;;;;;;8.11;63.00;100833.75;5011820;28;20059;-74
2024/04/05 06:17:34;;;;;;;13.32;2.47;;;;;;;8.13;63.20;100824.97;5007363;28;20041;-72
2024/04/05 06:19:59;;;;;;;20.05;2.38;;;;;;;8.31;62.42;100827.94;5004554;28;20014;-72
2024/04/05 06:22:27;;;;;;;17.35;2.90;;;;;;;8.31;62.45;100820.13;5009430;28;20418;-73
2024/04/05 06:24:54;;;;;;;18.27;3.33;;;;;;;8.12;62.92;100812.88;5004091;28;20128;-72
2024/04/05 06:27:20;;;;;;;21.10;3.28;;;;;;;8.41;62.51;100818.09;5008980;28;20994;-72
2024/04/05 06:29:49;;;;;;;21.63;2.58;;;;;;;8.34;63.04;100817.44;5006230;28;20091;-73
2024/04/05 06:32:15;;;;;;;15.65;3.42;;;;;;;8.56;62.16;100802.81;5009181;28;20107;-71
2024/04/05 06:34:42;;;;;;;9.70;1.70;;;;;;;8.66;61.50;100797.31;5002935;28;20025;-71
2024/04/05 06:37:08;;;;;;;13.88;2.75;;;;;;;8.67;61.62;100802.47;5009076;28;20098;-71
2024/04/05 06:39:34;;;;;;;13.82;1.90;;;;;;;8.90;60.89;100783.47;5014132;28;20024;-70
2024/04/05 06:42:00;;;;;;;17.08;2.55;;;;;;;8.42;62.28;100786.75;5008471;28;20203;-70
2024/04/05 06:44:31;;;;;;;15.98;2.85;;;;;;;8.48;61.99;100781.38;5013421;28;20037;-72
2024/04/05 06:47:00;;;;;;;18.65;3.40;;;;;;;8.55;61.93;100775.03;5006959;28;20914;-70
2024/04/05 06:49:26;;;;;;;19.85;2.17;;;;;;;9.10;60.95;100764.53;5015889;28;20067;-72
2024/04/05 06:51:51;;;;;;;17.10;2.95;;;;;;;9.27;60.11;100740.44;5007280;28;20501;-71
2024/04/05 06:54:17;;;;;;;13.90;2.45;;;;;;;9.40;60.06;100761.72;5009786;28;20111;-71
2024/04/05 06:56:43;;;;;;;13.45;2.58;;;;;;;9.16;60.64;100784.31;5007202;28;20049;-72
2024/04/05 06:59:08;;;;;;;16.15;3.20;;;;;;;9.04;60.90;100796.03;4995514;28;20048;-70
2024/04/05 07:01:34;;;;;;;19.55;2.42;;;;;;;9.17;60.62;100801.66;5013959;28;20040;-72
2024/04/05 07:03:59;;;;;;;15.43;3.20;;;;;;;9.28;60.29;100814.34;5000566;28;20242;-71
2024/04/05 07:06:25;;;;;;;21.85;2.58;;;;;;;8.71;62.16;100816.25;5011935;28;20231;-72
2024/04/05 07:08:51;;;;;;;10.98;2.10;;;;;;;9.15;60.38;100808.69;5004816;28;20580;-71
2024/04/05 07:11:17;;;;;;;18.38;1.67;;;;;;;9.14;60.38;100793.94;5016773;28;20710;-73
2024/04/05 07:13:43;;;;;;;11.13;2.25;;;;;;;9.86;58.92;100786.13;5007035;28;20037;-70
2024/04/05 07:16:11;;;;;;;10.63;2.17;;;;;;;10.15;57.97;100774.53;5012973;28;20107;-72
2024/04/05 07:18:37;;;;;;;13.60;1.60;;;;;;;10.22;57.56;100770.75;5012822;28;20813;-70
2024/04/05 07:21:03;;;;;;;20.08;3.22;;;;;;;9.70;58.66;100764.06;5002999;28;20585;-70
2024/04/05 07:23:29;;;;;;;20.58;2.47;;;;;;;10.06;58.70;100767.06;5007201;28;20051;-72
2024/04/05 07:25:55;;;;;;;20.08;1.73;;;;;;;11.00;55.99;100771.06;5003009;28;20041;-74
2024/04/05 07:28:22;;;;;;;13.07;1.92;;;;;;;10.19;57.41;100773.50;5009257;28;20102;-70
2024/04/05 07:30:48;;;;;;;15.93;1.70;;;;;;;10.49;57.03;100781.00;5003052;28;20041;-70
2024/04/05 07:33:14;;;;;;;15.57;1.67;;;;;;;10.26;57.91;100763.66;5011733;28;20048;-70
2024/04/05 07:35:40;;;;;;;11.35;1.77;;;;;;;10.84;56.36;100776.09;5009614;28;20482;-74
2024/04/05 07:38:06;;;;;;;9.80;2.17;;;;;;;10.74;56.71;100777.34;5021303;28;20361;-71
2024/04/05 07:40:34;;;;;;;12.27;1.85;;;;;;;10.85;56.18;100769.94;5011407;28;20049;-73
2024/04/05 07:43:00;;;;;;;16.92;2.47;;;;;;;10.39;57.73;100766.59;5005424;28;20041;-74
2024/04/05 07:45:25;;;;;;;14.30;1.85;;;;;;;10.77;56.54;100769.38;5007366;28;20127;-74
2024/04/05 07:47:51;;;;;;;10.63;1.85;;;;;;;10.92;56.61;100768.75;5005009;28;20463;-74
2024/04/05 07:50:18;;;;;;;15.02;1.60;;;;;;;10.56;57.50;100772.00;5013697;28;20741;-70
2024/04/05 07:52:46;;;;;;;16.48;3.47;;;;;;;10.64;57.61;100775.13;5024076;28;20041;-74
2024/04/05 07:55:13;;;;;;;20.38;3.25;;;;;;;10.55;57.78;100767.69;5016793;28;20117;-73
2024/04/05 07:57:40;;;;;;;10.02;2.75;;;;;;;9.45;60.43;100774.56;5031267;28;20070;-72
2024/04/05 08:00:07;;;;;;;20.20;2.08;;;;;;;10.20;59.55;100772.56;5008684;28;20037;-74
2024/04/05 08:02:34;;;;;;;15.18;2.40;;;;;;;10.29;58.79;100762.69;5009768;28;20429;-73
2024/04/05 08:05:00;;;;;;;13.82;1.73;;;;;;;10.66;58.01;100766.38;5012377;28;20032;-72
2024/04/05 08:07:26;;;;;;;15.27;2.08;;;;;;;10.53;57.71;100764.28;5012025;28;20459;-72
2024/04/05 08:09:54;;;;;;;12.18;1.98;;;;;;;9.78;59.52;100770.69;5010756;28;20037;-68
2024/04/05 08:12:23;;;;;;;16.88;2.38;;;;;;;9.99;60.18;100770.81;5008179;28;20102;-70
2024/04/05 08:14:50;;;;;;;21.95;2.72;;;;;;;10.08;59.61;100764.38;5001444;28;20264;-69
2024/04/05 08:17:16;;;;;;;14.23;2.55;;;;;;;10.04;59.44;100771.50;5023399;28;20060;-69
2024/04/05 08:19:42;;;;;;;10.38;2.40;;;;;;;10.68;57.84;100769.78;5012530;28;20120;-69
2024/04/05 08:22:07;;;;;;;19.08;3.25;;;;;;;10.77;57.96;100764.16;5001398;28;20420;-69
2024/04/05 08:24:36;;;;;;;17.50;2.35;;;;;;;10.94;56.74;100766.09;5011704;28;20038;-70
2024/04/05 08:27:02;;;;;;;11.55;2.83;;;;;;;10.95;56.96;100760.81;5000587;28;20053;-69
2024/04/05 08:29:28;;;;;;;21.33;2.83;;;;;;;11.07;56.33;100761.19;5012370;28;20111;-69
2024/04/05 08:31:53;;;;;;;13.60;2.63;;;;;;;10.97;57.07;100750.25;4987317;28;20203;-68
2024/04/05 08:34:20;;;;;;;14.13;2.28;;;;;;;11.19;56.47;100747.53;5013815;28;20855;-68
2024/04/05 08:36:48;;;;;;;11.85;2.85;;;;;;;11.42;56.31;100734.28;5008521;28;20112;-69
2024/04/05 08:39:17;;;;;;;12.88;2.97;;;;;;;11.21;56.76;100730.84;5014301;28;20033;-69
2024/04/05 08:41:45;;;;;;;12.27;2.40;;;;;;;10.93;56.77;100740.84;5014040;28;20048;-69
2024/04/05 08:44:12;;;;;;;13.20;2.47;;;;;;;11.25;57.61;100734.19;5003139;28;20063;-69
2024/04/05 08:46:42;;;;;;;19.40;2.65;;;;;;;11.93;55.38;100729.31;5016129;28;20526;-69
2024/04/05 08:49:08;;;;;;;17.58;2.10;;;;;;;11.98;55.08;100739.59;5021537;28;21183;-69
2024/04/05 08:51:34;;;;;;;13.35;2.30;;;;;;;12.25;54.73;100733.00;5016507;28;20036;-69
2024/04/05 08:54:00;;;;;;;11.63;1.67;;;;;;;12.56;54.01;100720.09;5003358;28;20195;-69
2024/04/05 08:56:28;;;;;;;8.80;2.10;;;;;;;12.42;53.36;100718.19;5013991;28;20039;-69
2024/04/05 08:58:54;;;;;;;17.65;2.65;;;;;;;12.55;53.34;100700.91;5002322;28;20067;-69
2024/04/05 09:01:20;;;;;;;13.80;2.17;;;;;;;12.59;53.28;100699.84;5014504;28;20112;-69
2024/04/05 09:03:49;;;;;;;18.48;2.55;;;;;;;12.35;53.99;100685.38;5010352;28;20570;-69
2024/04/05 09:06:15;;;;;;;13.57;2.13;;;;;;;11.64;55.51;100678.28;4988120;28;20043;-66
2024/04/05 09:08:49;;;;;;;11.88;2.58;;;;;;;11.70;56.37;100671.94;5015141;28;20040;-69
2024/04/05 09:11:25;;;;;;;13.20;2.85;;;;;;;11.70;56.45;100664.09;5010340;28;20074;-69
2024/04/05 09:13:58;;;;;;;9.82;2.35;;;;;;;12.50;54.26;100661.00;5009979;28;20345;-71
2024/04/05 09:16:25;;;;;;;10.18;2.45;;;;;;;11.63;55.82;100663.53;5010869;28;20029;-69
2024/04/05 09:18:51;;;;;;;18.23;2.47;;;;;;;12.23;54.96;100665.88;5012995;28;20526;-70
2024/04/05 09:21:18;;;;;;;8.57;1.38;;;;;;;12.40;54.00;100667.63;5010126;28;20029;-70
2024/04/05 09:23:48;;;;;;;9.25;2.65;;;;;;;12.32;53.99;100661.94;5011731;28;20742;-71
2024/04/05 09:26:25;;;;;;;16.10;3.13;;;;;;;12.10;54.89;100647.28;5001355;28;20510;-71
2024/04/05 09:29:01;;;;;;;9.77;2.47;;;;;;;11.60;55.75;100640.13;5011600;28;20102;-70
2024/04/05 09:31:28;;;;;;;7.32;1.73;;;;;;;11.41;56.36;100635.75;5010489;28;20036;-69
2024/04/05 09:34:08;;;;;;;14.93;2.60;;;;;;;11.17;57.04;100621.19;5003182;28;20037;-71
2024/04/05 09:36:35;;;;;;;13.52;1.65;;;;;;;11.36;56.91;100622.03;5023656;28;20574;-69
2024/04/05 09:39:05;;;;;;;13.38;2.03;;;;;;;12.09;55.73;100608.94;5003743;28;20077;-68
2024/04/05 09:41:35;;;;;;;16.67;2.35;;;;;;;12.14;55.05;100600.84;5010703;28;20102;-70
2024/04/05 09:44:05;;;;;;;13.32;1.70;;;;;;;11.97;55.70;100615.63;5002794;28;20041;-67
2024/04/05 09:46:32;;;;;;;7.00;1.58;;;;;;;11.90;56.25;100610.78;5010636;28;20093;-67
2024/04/05 09:49:00;;;;;;;9.82;2.10;;;;;;;11.60;56.71;100608.72;5018782;28;20052;-67
2024/04/05 09:51:33;;;;;;;14.38;1.83;;;;;;;11.58;56.68;100595.69;5012167;28;20768;-67
2024/04/05 09:54:00;;;;;;;12.90;2.05;;;;;;;12.17;55.79;100583.16;5018078;28;20037;-67
2024/04/05 09:56:30;;;;;;;13.73;2.05;;;;;;;12.53;54.99;100574.31;5006742;28;20098;-65
2024/04/05 09:58:57;;;;;;;12.02;2.00;;;;;;;12.78;54.46;100562.53;5003456;28;20063;-66
2024/04/05 10:01:23;;;;;;;11.63;2.15;;;;;;;12.85;53.90;100558.69;5008733;28;20039;-66
2024/04/05 10:03:53;;;;;;;11.95;2.35;;;;;;;12.70;53.51;100553.31;5011296;28;20043;-67
2024/04/05 10:06:19;;;;;;;15.23;5.57;;;;;;;12.87;53.38;100541.94;5005390;28;20727;-67
2024/04/05 10:08:47;;;;;;;9.52;1.83;;;;;;;12.74;53.68;100550.56;5012337;28;20036;-67
2024/04/05 10:11:14;;;;;;;14.82;2.47;;;;;;;12.50;54.07;100564.00;5002478;28;21422;-67
2024/04/05 10:13:41;;;;;;;7.43;1.40;;;;;;;12.45;54.29;100561.63;5008669;28;20130;-66
2024/04/05 10:16:08;;;;;;;10.32;1.58;;;;;;;11.25;57.15;100579.84;5003830;28;20072;-66
2024/04/05 10:18:38;;;;;;;12.55;1.58;;;;;;;11.32;57.39;100604.78;5013179;28;20929;-67
2024/04/05 10:21:08;;;;;;;9.63;1.88;;;;;;;11.56;57.39;100591.47;5003916;28;20111;-67
2024/04/05 10:23:38;;;;;;;4.90;1.52;;;;;;;11.22;57.94;100599.16;5011788;28;20078;-67
2024/04/05 10:26:11;;;;;;;9.60;1.65;;;;;;;11.35;58.15;100596.81;5000947;28;20059;-67
2024/04/05 10:28:37;;;;;;;8.65;1.90;;;;;;;10.59;60.14;100588.94;5009550;28;20127;-68
2024/04/05 10:31:05;;;;;;;4.82;2.45;;;;;;;10.17;62.17;100576.84;5002286;28;20083;-70
2024/04/05 10:33:32;;;;;;;7.53;3.22;;;;;;;10.21;62.67;100560.13;4994926;28;20552;-69
2024/04/05 10:35:59;;;;;;;8.75;2.42;;;;;;;10.57;62.03;100538.50;5002417;28;20072;-69
2024/04/05 10:38:27;;;;;;;11.05;3.35;;;;;;;10.59;61.68;100539.28;5006915;28;20045;-68
2024/04/05 10:40:59;;;;;;;9.32;2.75;;;;;;;10.29;62.60;100538.88;5014851;28;20510;-67
2024/04/05 10:43:26;;;;;;;7.93;2.63;;;;;;;9.84;64.00;100526.06;5004342;28;20048;-68
2024/04/05 10:45:56;;;;;;;7.63;2.05;;;;;;;9.99;63.99;100531.47;5012148;28;20086;-68
2024/04/05 10:48:23;;;;;;;4.90;2.20;;;;;;;10.30;63.41;100535.31;5004668;28;20053;-68
2024/04/05 10:50:49;;;;;;;11.80;3.67;;;;;;;10.21;63.80;100536.63;5010311;28;20088;-69
2024/04/05 10:53:21;;;;;;;11.18;3.00;;;;;;;10.33;63.57;100540.44;4997483;28;20041;-68
2024/04/05 10:55:51;;;;;;;13.35;3.15;;;;;;;10.59;62.98;100557.56;5010595;28;20624;-68
2024/04/05 10:58:17;;;;;;;9.60;2.72;;;;;;;10.13;64.26;100549.16;5000650;28;22286;-69
2024/04/05 11:00:44;;;;;;;8.05;2.53;;;;;;;10.27;63.45;100555.53;5013495;28;20033;-68
2024/04/05 11:03:10;;;;;;;8.45;2.58;;;;;;;10.29;64.05;100579.81;5000229;28;20635;-68
2024/04/05 11:05:36;;;;;;;11.30;3.55;;;;;;;9.99;65.17;100577.59;5010666;28;20036;-69
2024/04/05 11:08:04;;;;;;;14.13;2.63;;;;;;;10.37;63.72;100564.66;5001586;28;20064;-68
2024/04/05 11:10:31;;;;;;;7.38;3.53;;;;;;;10.35;63.82;100558.66;5010583;28;20037;-68
2024/04/05 11:12:57;;;;;;;8.48;2.28;;;;;;;9.84;65.16;100552.16;5006563;28;20021;-69
2024/04/05 11:15:23;;;;;;;14.75;2.15;;;;;;;10.24;64.63;100543.47;5002883;28;20029;-69
2024/04/05 11:18:03;;;;;;;10.65;1.95;;;;;;;10.25;64.32;100534.69;5008994;28;20557;-68
2024/04/05 11:20:33;;;;;;;8.07;2.70;;;;;;;9.91;65.65;100527.50;5008760;28;20478;-68